ADDS METAR Data INFO
IDs: Format: Raw Decoded Include TAF

Data at: 0133 UTC 20 Feb 2018

K14Y 200115Z AUTO 35012G22KT 7SM OVC028 M11/M14 A2997 RMK AO2
K14Y 200056Z AUTO 35014G20KT 10SM OVC028 M11/M14 A2998 RMK AO2
K14Y 200035Z AUTO 34016G22KT 7SM OVC028 M11/M14 A2997 RMK AO2
K14Y 200015Z AUTO 34015G21KT 10SM BKN026 OVC030 M11/M14 A2998 RMK AO2
K14Y 192355Z AUTO 33015G20KT 10SM OVC024 M11/M14 A2998 RMK AO2
K14Y 192335Z AUTO 33013G17KT 10SM BKN028 OVC037 M11/M14 A2999 RMK AO2
K14Y 192315Z AUTO 33015G18KT 7SM BKN030 OVC037 M10/M14 A2997 RMK AO2
K14Y 192255Z AUTO 33012KT 10SM OVC032 M10/M14 A2998 RMK AO2
K14Y 192235Z AUTO 33010KT 10SM OVC034 M10/M13 A2999 RMK AO2
K14Y 192215Z AUTO 34013G16KT 10SM OVC034 M10/M13 A2998 RMK AO2
K14Y 192156Z AUTO 34015G19KT 10SM OVC036 M10/M13 A2996 RMK AO2
K14Y 192135Z AUTO 34016G20KT 10SM OVC040 M10/M13 A2995 RMK AO2
K14Y 192115Z AUTO 34016G21KT 10SM OVC044 M10/M13 A2995 RMK AO2
K14Y 192055Z AUTO 34013G20KT 10SM OVC046 M10/M14 A2995 RMK AO2
K14Y 192036Z AUTO 35012G19KT 10SM OVC048 M10/M14 A2996 RMK AO2
K14Y 192015Z AUTO 34013G18KT 10SM OVC050 M10/M14 A2997 RMK AO2
K14Y 191955Z AUTO 34013G19KT 10SM OVC050 M10/M14 A2997 RMK AO2
K14Y 191935Z AUTO 35013G20KT 10SM BKN050 OVC070 M10/M14 A2997 RMK AO2
K14Y 191915Z AUTO 34010G19KT 10SM SCT060 SCT070 M10/M14 A2998 RMK AO2
K14Y 191855Z AUTO 34011G16KT 10SM SCT060 M10/M13 A2998 RMK AO2
K14Y 191835Z AUTO 34013G19KT 10SM CLR M11/M14 A2999 RMK AO2
K14Y 191815Z AUTO 35011G18KT 7SM -SN CLR M11/M14 A3000 RMK AO2
K14Y 191755Z AUTO 35010G18KT 7SM -SN CLR M11/M14 A3000 RMK AO2
K14Y 191735Z AUTO 34016G19KT 4SM -SN CLR M11/M14 A2999 RMK AO2
K14Y 191715Z AUTO 34015KT 3SM -SN CLR M11/M14 A3000 RMK AO2
K14Y 191655Z AUTO 33014G18KT 1 1/4SM -SN SCT017 SCT025 BKN032 M12/M14 A3000 RMK AO2
K14Y 191635Z AUTO 33013KT 2SM -SN SCT021 SCT027 BKN032 M12/M15 A3000 RMK AO2
K14Y 191615Z AUTO 33011KT 1 1/2SM -SN VV007 M12/M15 A3000 RMK AO2
K14Y 191555Z AUTO 34015G19KT 1 3/4SM -SN VV007 M12/M15 A3000 RMK AO2
K14Y 191535Z AUTO 33012KT 1 3/4SM -SN VV007 M12/M15 A3000 RMK AO2
K14Y 191515Z AUTO 33012G19KT 1 1/2SM -SN VV007 M12/M15 A3000 RMK AO2
K14Y 191455Z AUTO 33014G19KT 1SM -SN VV007 M12/M15 A3001 RMK AO2
K14Y 191435Z AUTO 34015G21KT 1 1/2SM -SN VV007 M12/M14 A3001 RMK AO2
K14Y 191415Z AUTO 33012G19KT 1 1/4SM -SN VV007 M12/M15 A3001 RMK AO2
K14Y 191355Z AUTO 34013G16KT 1 3/4SM -SN VV007 M12/M15 A3001 RMK AO2
K14Y 191335Z AUTO 33010G18KT 1 1/4SM -SN VV007 M12/M15 A3001 RMK AO2
K14Y 191315Z AUTO 33011G16KT 2SM -SN CLR M12/M15 A3000 RMK AO2
K14Y 191255Z AUTO 33012G18KT 10SM CLR M12/M15 A2999 RMK AO2
K14Y 191235Z AUTO 33012G16KT 5SM -SN CLR M12/M15 A3000 RMK AO2
K14Y 191215Z AUTO 33012G15KT 5SM -SN CLR M12/M15 A2999 RMK AO2
K14Y 191155Z AUTO 33010G18KT 2 1/2SM -SN SCT022 SCT029 M12/M15 A2998 RMK AO2
K14Y 191135Z AUTO 33012G15KT 10SM -SN SCT026 BKN033 OVC050 M12/M15 A2995 RMK AO2
K14Y 191115Z AUTO 33012G17KT 10SM SCT045 BKN050 BKN065 M12/M15 A2995 RMK AO2
K14Y 191055Z AUTO 33014KT 10SM SCT075 M12/M15 A2994 RMK AO2
K14Y 191035Z AUTO 33010G17KT 10SM SCT080 M12/M15 A2993 RMK AO2
K14Y 191015Z AUTO 33016G22KT 10SM SCT080 SCT095 M12/M15 A2989 RMK AO2
K14Y 190955Z AUTO 33013G20KT 10SM CLR M12/M15 A2989 RMK AO2
K14Y 190935Z AUTO 33012G17KT 10SM CLR M12/M15 A2990 RMK AO2
K14Y 190915Z AUTO 33017KT 10SM CLR M11/M14 A2990 RMK AO2
K14Y 190855Z AUTO 33011G19KT 10SM CLR M11/M14 A2993 RMK AO2
K14Y 190835Z AUTO 32015G21KT 10SM SCT080 M11/M14 A2992 RMK AO2
K14Y 190815Z AUTO 31013G19KT 10SM BKN080 OVC095 M11/M13 A2992 RMK AO2
K14Y 190755Z AUTO 33016KT 10SM OVC095 M11/M13 A2989 RMK AO2
K14Y 190735Z AUTO 33014G22KT 10SM BKN095 M11/M13 A2987 RMK AO2
K14Y 190715Z AUTO 32016G19KT 10SM SCT095 M11/M13 A2986 RMK AO2
K14Y 190655Z AUTO 32015G20KT 10SM SCT095 M11/M13 A2987 RMK AO2
K14Y 190635Z AUTO 31011G15KT 10SM CLR M11/M13 A2987 RMK AO2
K14Y 190615Z AUTO 32011G18KT 10SM CLR M10/M13 A2986 RMK AO2
K14Y 190555Z AUTO 32013G20KT 10SM SCT013 M10/M12 A2986 RMK AO2
K14Y 190535Z AUTO 32013G16KT 10SM BKN013 M10/M12 A2988 RMK AO2
K14Y 190515Z AUTO 33013G16KT 10SM BKN013 M09/M11 A2985 RMK AO2
K14Y 190455Z AUTO 32011G17KT 10SM BKN013 M08/M11 A2985 RMK AO2
K14Y 190435Z AUTO 33014G17KT 10SM BKN015 BKN100 M08/M11 A2984 RMK AO2
K14Y 190415Z AUTO 33011G17KT 10SM BKN015 BKN100 M07/M10 A2982 RMK AO2
K14Y 190355Z AUTO 33011G19KT 10SM OVC015 M07/M10 A2979 RMK AO2
K14Y 190335Z AUTO 33013G19KT 10SM OVC015 M07/M10 A2978 RMK AO2
K14Y 190315Z AUTO 33013G18KT 10SM BKN015 M07/M10 A2976 RMK AO2
K14Y 190255Z AUTO 33013G20KT 10SM SCT015 SCT110 M07/M10 A2975 RMK AO2
K14Y 190235Z AUTO 33010G19KT 10SM SCT110 M07/M10 A2978 RMK AO2
K14Y 190215Z AUTO 33013G19KT 10SM SCT060 SCT110 M07/M10 A2976 RMK AO2
K14Y 190155Z AUTO 33011G15KT 10SM BKN060 M06/M10 A2975 RMK AO2
K14Y 190135Z AUTO 32010G16KT 10SM OVC060 M06/M10 A2976 RMK AO2
K14Y 190115Z AUTO 32010G16KT 10SM BKN060 M06/M10 A2975 RMK AO2
K14Y 190055Z AUTO 32014KT 10SM CLR M06/M09 A2973 RMK AO2
K14Y 190035Z AUTO 32011G20KT 10SM SCT110 M06/M09 A2972 RMK AO2
K14Y 190015Z AUTO 32012G17KT 10SM SCT100 M06/M08 A2969 RMK AO2
K14Y 182355Z AUTO 32013KT 10SM SCT110 M06/M08 A2968 RMK AO2
K14Y 182335Z AUTO 33011KT 7SM -SN CLR M06/M08 A2965 RMK AO2
K14Y 182315Z AUTO 32014G19KT 2SM -SN CLR M05/M08 A2965 RMK AO2
K14Y 182255Z AUTO 32012G15KT 4SM -SN CLR M04/M08 A2964 RMK AO2
K14Y 182235Z AUTO 32012KT 10SM CLR M03/M09 A2963 RMK AO2
K14Y 182215Z AUTO 32012G15KT 10SM CLR M03/M09 A2963 RMK AO2
K14Y 182156Z AUTO 32009G16KT 10SM CLR M02/M08 A2961 RMK AO2
K14Y 182135Z AUTO 33011KT 10SM CLR M01/M07 A2959 RMK AO2
K14Y 182115Z AUTO 34012G15KT 10SM CLR M01/M07 A2958 RMK AO2
K14Y 182055Z AUTO 33011KT 10SM CLR M01/M06 A2958 RMK AO2
K14Y 182035Z AUTO 36008KT 10SM CLR M01/M06 A2956 RMK AO2
K14Y 182015Z AUTO 35007KT 10SM CLR M01/M06 A2956 RMK AO2
K14Y 181955Z AUTO 36006KT 10SM CLR M01/M06 A2956 RMK AO2
K14Y 181935Z AUTO 02005KT 10SM CLR M01/M07 A2956 RMK AO2
K14Y 181915Z AUTO 02004KT 10SM CLR M01/M07 A2957 RMK AO2
K14Y 181855Z AUTO 04005KT 10SM CLR M01/M07 A2958 RMK AO2
K14Y 181835Z AUTO 03007KT 10SM CLR M02/M07 A2958 RMK AO2
K14Y 181815Z AUTO 04006KT 10SM CLR M02/M07 A2959 RMK AO2
K14Y 181755Z AUTO 04006KT 10SM CLR M03/M08 A2961 RMK AO2
K14Y 181735Z AUTO 06006KT 10SM CLR M03/M09 A2962 RMK AO2
K14Y 181715Z AUTO 08007KT 10SM CLR M03/M10 A2962 RMK AO2
K14Y 181655Z AUTO 08006KT 10SM SCT026 M04/M10 A2963 RMK AO2
K14Y 181635Z AUTO 07008KT 10SM CLR M04/M10 A2964 RMK AO2
K14Y 181615Z AUTO 07009G14KT 10SM CLR M05/M11 A2965 RMK AO2
K14Y 181555Z AUTO 08008KT 10SM CLR M05/M11 A2968 RMK AO2
K14Y 181535Z AUTO 07009G16KT 10SM CLR M06/M12 A2969 RMK AO2
K14Y 181515Z AUTO 08012G15KT 10SM CLR M06/M12 A2971 RMK AO2
K14Y 181455Z AUTO 08013G20KT 10SM CLR M06/M12 A2971 RMK AO2
K14Y 181435Z AUTO 07011G21KT 10SM CLR M06/M13 A2971 RMK AO2
K14Y 181415Z AUTO 07017G27KT 10SM CLR M07/M13 A2972 RMK AO2
K14Y 181355Z AUTO 07015G21KT 10SM CLR M07/M13 A2975 RMK AO2
K14Y 181335Z AUTO 07014G21KT 10SM CLR M07/M12 A2977 RMK AO2